Huvudsida
METAR-TAF:

METAR-TAF

Flygplatser :

Notoddens flygplats. Tuven

Notoddens, Norge

latitud: 59-34N, longitud: 009-13E, höjd: 19 m

Aktuellt väderrapport

Denna rapport gjordes för 1 timme och 6 minuter sedan, klockan 14:50 UTC
Vind 3 kt från väst/sydväst
Temperatur -1°C
Fuktighet 100%
Tryck 1018 hPa
Sikt 10 km eller mer
Mulet på en höjd av 2700 ft
skurar i närheten

METAR: ENNO 161450Z 25003KT 9999 VCSH OVC027 M01/M01 Q1018

Tid: 16:56 (15:56 UTC)

Väderprognos

Denna rapport gjordes för 1 timme och 56 minuter sedan, klockan 14:00 UTC
Prognos gäller från 16 kl. 15 UTC till 16 kl. 18 UTC
Vind 5 kt varierande vindriktning
Sikt: 8000 m
Få moln på en höjd av 1200 ft
Brutna moln på en höjd av 2000 ft
lätt snö

TAF: ENNO 161400Z 1615/1618 VRB05KT 8000 -SN FEW012 BKN020

Aktuella väderrapporter och prognoser från 4000 flygplatser (METAR- och TAF-rapporter).

De tillgängliga stationerna syns som gula och röda prickar på kartan.

För musen över prickarna för att se namnen på stationerna.

Klicka sedan för att få väderrapporter och prognoser.

För att ändra kartan: Klicka på de gröna knapparna med ett svart kors på för att zooma in; den gröna knappen med ett streck på för att zooma ut; eller på de gröna pilarna för angränsande kartor.


METAR-TAF: